sensor_id;sensor_type;location;lat;lon;timestamp;temperature;humidity
51867;DHT22;52862;52.504;13.480;2022-08-21T00:01:41;20.60;99.90
51867;DHT22;52862;52.504;13.480;2022-08-21T00:04:08;20.50;99.90
51867;DHT22;52862;52.504;13.480;2022-08-21T00:06:35;20.50;99.90
51867;DHT22;52862;52.504;13.480;2022-08-21T00:09:04;20.50;99.90
51867;DHT22;52862;52.504;13.480;2022-08-21T00:11:33;20.40;99.90
51867;DHT22;52862;52.504;13.480;2022-08-21T00:14:01;20.40;99.90
51867;DHT22;52862;52.504;13.480;2022-08-21T00:16:28;20.40;99.90
51867;DHT22;52862;52.504;13.480;2022-08-21T00:18:55;20.30;99.90
51867;DHT22;52862;52.504;13.480;2022-08-21T00:21:22;20.30;99.90
51867;DHT22;52862;52.504;13.480;2022-08-21T00:23:50;20.20;99.90
51867;DHT22;52862;52.504;13.480;2022-08-21T00:26:17;20.20;99.90
51867;DHT22;52862;52.504;13.480;2022-08-21T00:28:46;20.20;99.90
51867;DHT22;52862;52.504;13.480;2022-08-21T00:31:17;20.20;99.90
51867;DHT22;52862;52.504;13.480;2022-08-21T00:33:44;20.10;99.90
51867;DHT22;52862;52.504;13.480;2022-08-21T00:36:12;20.10;99.90
51867;DHT22;52862;52.504;13.480;2022-08-21T00:38:39;20.10;99.90
51867;DHT22;52862;52.504;13.480;2022-08-21T00:41:08;20.10;99.90
51867;DHT22;52862;52.504;13.480;2022-08-21T00:43:55;20.20;99.90
51867;DHT22;52862;52.504;13.480;2022-08-21T00:46:25;20.10;99.90
51867;DHT22;52862;52.504;13.480;2022-08-21T00:48:54;20.10;99.90
51867;DHT22;52862;52.504;13.480;2022-08-21T00:51:33;20.10;99.90
51867;DHT22;52862;52.504;13.480;2022-08-21T00:54:05;20.10;99.90
51867;DHT22;52862;52.504;13.480;2022-08-21T00:56:45;20.00;99.90
51867;DHT22;52862;52.504;13.480;2022-08-21T00:59:14;20.00;99.90
51867;DHT22;52862;52.504;13.480;2022-08-21T01:01:44;20.00;99.90
51867;DHT22;52862;52.504;13.480;2022-08-21T01:04:14;20.00;99.90
51867;DHT22;52862;52.504;13.480;2022-08-21T01:06:42;20.00;99.90
51867;DHT22;52862;52.504;13.480;2022-08-21T01:09:09;20.00;99.90
51867;DHT22;52862;52.504;13.480;2022-08-21T01:11:36;20.00;99.90
51867;DHT22;52862;52.504;13.480;2022-08-21T01:14:04;20.00;99.90
51867;DHT22;52862;52.504;13.480;2022-08-21T01:16:31;19.90;99.90
51867;DHT22;52862;52.504;13.480;2022-08-21T01:18:58;19.90;99.90
51867;DHT22;52862;52.504;13.480;2022-08-21T01:21:27;19.90;99.90
51867;DHT22;52862;52.504;13.480;2022-08-21T01:23:56;19.90;99.90
51867;DHT22;52862;52.504;13.480;2022-08-21T01:26:26;19.90;99.90
51867;DHT22;52862;52.504;13.480;2022-08-21T01:29:09;19.90;99.90
51867;DHT22;52862;52.504;13.480;2022-08-21T01:31:38;19.80;99.90
51867;DHT22;52862;52.504;13.480;2022-08-21T01:34:06;19.80;99.90
51867;DHT22;52862;52.504;13.480;2022-08-21T01:36:34;19.80;99.90
51867;DHT22;52862;52.504;13.480;2022-08-21T01:39:02;19.90;99.90
51867;DHT22;52862;52.504;13.480;2022-08-21T01:41:29;19.80;99.90
51867;DHT22;52862;52.504;13.480;2022-08-21T01:43:56;19.80;99.90
51867;DHT22;52862;52.504;13.480;2022-08-21T01:46:23;19.70;99.90
51867;DHT22;52862;52.504;13.480;2022-08-21T01:48:50;19.80;99.90
51867;DHT22;52862;52.504;13.480;2022-08-21T01:51:17;19.80;99.90
51867;DHT22;52862;52.504;13.480;2022-08-21T01:53:45;19.80;99.90
51867;DHT22;52862;52.504;13.480;2022-08-21T01:56:13;19.80;99.90
51867;DHT22;52862;52.504;13.480;2022-08-21T01:58:42;19.70;99.90
51867;DHT22;52862;52.504;13.480;2022-08-21T02:01:09;19.70;99.90
51867;DHT22;52862;52.504;13.480;2022-08-21T02:03:37;19.60;99.90
51867;DHT22;52862;52.504;13.480;2022-08-21T02:06:05;19.60;99.90
51867;DHT22;52862;52.504;13.480;2022-08-21T02:08:33;19.60;99.90
51867;DHT22;52862;52.504;13.480;2022-08-21T02:11:01;19.50;99.90
51867;DHT22;52862;52.504;13.480;2022-08-21T02:13:28;19.40;99.90
51867;DHT22;52862;52.504;13.480;2022-08-21T02:15:55;19.40;99.90
51867;DHT22;52862;52.504;13.480;2022-08-21T02:18:21;19.40;99.90
51867;DHT22;52862;52.504;13.480;2022-08-21T02:20:49;19.30;99.90
51867;DHT22;52862;52.504;13.480;2022-08-21T02:23:22;19.30;99.90
51867;DHT22;52862;52.504;13.480;2022-08-21T02:25:53;19.30;99.90
51867;DHT22;52862;52.504;13.480;2022-08-21T02:28:20;19.20;99.90
51867;DHT22;52862;52.504;13.480;2022-08-21T02:30:47;19.20;99.90
51867;DHT22;52862;52.504;13.480;2022-08-21T02:33:14;19.00;99.90
51867;DHT22;52862;52.504;13.480;2022-08-21T02:35:42;19.50;99.90
51867;DHT22;52862;52.504;13.480;2022-08-21T02:38:14;19.20;99.90
51867;DHT22;52862;52.504;13.480;2022-08-21T02:40:45;19.10;99.90
51867;DHT22;52862;52.504;13.480;2022-08-21T02:43:17;19.10;99.90
51867;DHT22;52862;52.504;13.480;2022-08-21T02:45:46;19.10;99.90
51867;DHT22;52862;52.504;13.480;2022-08-21T02:48:15;19.10;99.90
51867;DHT22;52862;52.504;13.480;2022-08-21T02:50:45;19.00;99.90
51867;DHT22;52862;52.504;13.480;2022-08-21T02:53:14;19.00;99.90
51867;DHT22;52862;52.504;13.480;2022-08-21T02:55:43;19.00;99.90
51867;DHT22;52862;52.504;13.480;2022-08-21T02:58:10;19.00;99.90
51867;DHT22;52862;52.504;13.480;2022-08-21T03:00:38;18.90;99.90
51867;DHT22;52862;52.504;13.480;2022-08-21T03:03:06;18.90;99.90
51867;DHT22;52862;52.504;13.480;2022-08-21T03:05:35;18.90;99.90
51867;DHT22;52862;52.504;13.480;2022-08-21T03:08:05;18.80;99.90
51867;DHT22;52862;52.504;13.480;2022-08-21T03:10:36;18.80;99.90
51867;DHT22;52862;52.504;13.480;2022-08-21T03:13:03;18.80;99.90
51867;DHT22;52862;52.504;13.480;2022-08-21T03:15:30;18.70;99.90
51867;DHT22;52862;52.504;13.480;2022-08-21T03:17:56;18.70;99.90
51867;DHT22;52862;52.504;13.480;2022-08-21T03:20:26;18.70;99.90
51867;DHT22;52862;52.504;13.480;2022-08-21T03:22:54;18.70;99.90
51867;DHT22;52862;52.504;13.480;2022-08-21T03:25:22;18.70;99.90
51867;DHT22;52862;52.504;13.480;2022-08-21T03:28:08;18.70;99.90
51867;DHT22;52862;52.504;13.480;2022-08-21T03:30:38;18.60;99.90
51867;DHT22;52862;52.504;13.480;2022-08-21T03:33:05;18.70;99.90
51867;DHT22;52862;52.504;13.480;2022-08-21T03:35:40;18.80;99.90
51867;DHT22;52862;52.504;13.480;2022-08-21T03:38:08;18.70;99.90
51867;DHT22;52862;52.504;13.480;2022-08-21T03:40:35;18.60;99.90
51867;DHT22;52862;52.504;13.480;2022-08-21T03:43:02;18.60;99.90
51867;DHT22;52862;52.504;13.480;2022-08-21T03:45:29;18.60;99.90
51867;DHT22;52862;52.504;13.480;2022-08-21T03:47:57;18.60;99.90
51867;DHT22;52862;52.504;13.480;2022-08-21T03:50:27;18.60;99.90
51867;DHT22;52862;52.504;13.480;2022-08-21T03:52:55;18.60;99.90
51867;DHT22;52862;52.504;13.480;2022-08-21T03:55:22;18.60;99.90
51867;DHT22;52862;52.504;13.480;2022-08-21T03:57:49;18.50;99.90
51867;DHT22;52862;52.504;13.480;2022-08-21T04:00:17;18.50;99.90
51867;DHT22;52862;52.504;13.480;2022-08-21T04:02:45;18.50;99.90
51867;DHT22;52862;52.504;13.480;2022-08-21T04:05:14;18.40;99.90
51867;DHT22;52862;52.504;13.480;2022-08-21T04:07:55;18.40;99.90
51867;DHT22;52862;52.504;13.480;2022-08-21T04:10:21;18.40;99.90
51867;DHT22;52862;52.504;13.480;2022-08-21T04:12:49;18.40;99.90
51867;DHT22;52862;52.504;13.480;2022-08-21T04:15:17;18.30;99.90
51867;DHT22;52862;52.504;13.480;2022-08-21T04:17:43;18.30;99.90
51867;DHT22;52862;52.504;13.480;2022-08-21T04:20:13;18.30;99.90
51867;DHT22;52862;52.504;13.480;2022-08-21T04:22:40;18.40;99.90
51867;DHT22;52862;52.504;13.480;2022-08-21T04:25:08;18.40;99.90
51867;DHT22;52862;52.504;13.480;2022-08-21T04:27:35;18.40;99.90
51867;DHT22;52862;52.504;13.480;2022-08-21T04:30:02;18.40;99.90
51867;DHT22;52862;52.504;13.480;2022-08-21T04:32:29;18.40;99.90
51867;DHT22;52862;52.504;13.480;2022-08-21T04:34:59;18.40;99.90
51867;DHT22;52862;52.504;13.480;2022-08-21T04:37:27;18.40;99.90
51867;DHT22;52862;52.504;13.480;2022-08-21T04:39:54;18.40;99.90
51867;DHT22;52862;52.504;13.480;2022-08-21T04:42:24;18.40;99.90
51867;DHT22;52862;52.504;13.480;2022-08-21T04:44:51;18.40;99.90
51867;DHT22;52862;52.504;13.480;2022-08-21T04:47:18;18.40;99.90
51867;DHT22;52862;52.504;13.480;2022-08-21T04:49:45;18.40;99.90
51867;DHT22;52862;52.504;13.480;2022-08-21T04:52:13;18.40;99.90
51867;DHT22;52862;52.504;13.480;2022-08-21T04:54:42;18.40;99.90
51867;DHT22;52862;52.504;13.480;2022-08-21T04:57:11;18.40;99.90
51867;DHT22;52862;52.504;13.480;2022-08-21T04:59:42;18.30;99.90
51867;DHT22;52862;52.504;13.480;2022-08-21T05:02:10;18.40;99.90
51867;DHT22;52862;52.504;13.480;2022-08-21T05:04:39;18.40;99.90
51867;DHT22;52862;52.504;13.480;2022-08-21T05:07:12;18.40;99.90
51867;DHT22;52862;52.504;13.480;2022-08-21T05:09:40;18.40;99.90
51867;DHT22;52862;52.504;13.480;2022-08-21T05:12:07;18.40;99.90
51867;DHT22;52862;52.504;13.480;2022-08-21T05:14:34;18.50;99.90
51867;DHT22;52862;52.504;13.480;2022-08-21T05:17:02;18.50;99.90
51867;DHT22;52862;52.504;13.480;2022-08-21T05:19:29;18.60;99.90
51867;DHT22;52862;52.504;13.480;2022-08-21T05:21:56;18.60;99.90
51867;DHT22;52862;52.504;13.480;2022-08-21T05:24:23;18.60;99.90
51867;DHT22;52862;52.504;13.480;2022-08-21T05:26:50;18.70;99.90
51867;DHT22;52862;52.504;13.480;2022-08-21T05:29:17;18.60;99.90
51867;DHT22;52862;52.504;13.480;2022-08-21T05:31:45;18.60;99.90
51867;DHT22;52862;52.504;13.480;2022-08-21T05:34:14;18.60;99.90
51867;DHT22;52862;52.504;13.480;2022-08-21T05:36:44;18.50;99.90
51867;DHT22;52862;52.504;13.480;2022-08-21T05:39:11;18.50;99.90
51867;DHT22;52862;52.504;13.480;2022-08-21T05:41:38;18.50;99.90
51867;DHT22;52862;52.504;13.480;2022-08-21T05:44:05;18.50;99.90
51867;DHT22;52862;52.504;13.480;2022-08-21T05:46:36;18.40;99.90
51867;DHT22;52862;52.504;13.480;2022-08-21T05:49:03;18.40;99.90
51867;DHT22;52862;52.504;13.480;2022-08-21T05:51:31;18.40;99.90
51867;DHT22;52862;52.504;13.480;2022-08-21T05:53:58;18.60;99.90
51867;DHT22;52862;52.504;13.480;2022-08-21T05:56:25;18.60;99.90
51867;DHT22;52862;52.504;13.480;2022-08-21T05:58:51;18.80;99.90
51867;DHT22;52862;52.504;13.480;2022-08-21T06:01:18;18.70;99.90
51867;DHT22;52862;52.504;13.480;2022-08-21T06:03:45;18.80;99.90
51867;DHT22;52862;52.504;13.480;2022-08-21T06:06:12;18.80;99.90
51867;DHT22;52862;52.504;13.480;2022-08-21T06:08:39;18.80;99.90
51867;DHT22;52862;52.504;13.480;2022-08-21T06:11:07;18.90;99.90
51867;DHT22;52862;52.504;13.480;2022-08-21T06:13:34;18.90;99.90
51867;DHT22;52862;52.504;13.480;2022-08-21T06:16:03;19.00;99.90
51867;DHT22;52862;52.504;13.480;2022-08-21T06:18:29;19.00;99.90
51867;DHT22;52862;52.504;13.480;2022-08-21T06:20:56;18.80;99.90
51867;DHT22;52862;52.504;13.480;2022-08-21T06:23:23;19.10;99.90
51867;DHT22;52862;52.504;13.480;2022-08-21T06:26:00;19.00;99.90
51867;DHT22;52862;52.504;13.480;2022-08-21T06:28:27;19.10;99.90
51867;DHT22;52862;52.504;13.480;2022-08-21T06:30:54;19.00;99.90
51867;DHT22;52862;52.504;13.480;2022-08-21T06:33:20;19.10;99.90
51867;DHT22;52862;52.504;13.480;2022-08-21T06:35:47;19.10;99.90
51867;DHT22;52862;52.504;13.480;2022-08-21T06:38:14;19.10;99.90
51867;DHT22;52862;52.504;13.480;2022-08-21T06:40:41;19.30;99.90
51867;DHT22;52862;52.504;13.480;2022-08-21T06:43:15;19.30;99.90
51867;DHT22;52862;52.504;13.480;2022-08-21T06:45:43;19.40;99.90
51867;DHT22;52862;52.504;13.480;2022-08-21T06:48:09;19.40;99.90
51867;DHT22;52862;52.504;13.480;2022-08-21T06:50:41;19.40;99.90
51867;DHT22;52862;52.504;13.480;2022-08-21T06:53:10;19.50;99.90
51867;DHT22;52862;52.504;13.480;2022-08-21T06:55:38;19.60;99.90
51867;DHT22;52862;52.504;13.480;2022-08-21T06:58:05;19.60;99.90
51867;DHT22;52862;52.504;13.480;2022-08-21T07:00:33;19.60;99.90
51867;DHT22;52862;52.504;13.480;2022-08-21T07:03:01;19.60;99.90
51867;DHT22;52862;52.504;13.480;2022-08-21T07:05:29;19.60;99.90
51867;DHT22;52862;52.504;13.480;2022-08-21T07:07:56;19.80;99.90
51867;DHT22;52862;52.504;13.480;2022-08-21T07:10:23;19.90;99.90
51867;DHT22;52862;52.504;13.480;2022-08-21T07:12:50;19.90;99.90
51867;DHT22;52862;52.504;13.480;2022-08-21T07:15:28;20.10;99.90
51867;DHT22;52862;52.504;13.480;2022-08-21T07:17:57;20.20;99.90
51867;DHT22;52862;52.504;13.480;2022-08-21T07:20:24;20.40;99.90
51867;DHT22;52862;52.504;13.480;2022-08-21T07:22:51;20.50;99.90
51867;DHT22;52862;52.504;13.480;2022-08-21T07:25:19;20.50;99.90
51867;DHT22;52862;52.504;13.480;2022-08-21T07:27:45;20.30;99.90
51867;DHT22;52862;52.504;13.480;2022-08-21T07:30:12;20.10;99.90
51867;DHT22;52862;52.504;13.480;2022-08-21T07:32:39;20.30;99.90
51867;DHT22;52862;52.504;13.480;2022-08-21T07:35:07;20.40;99.90
51867;DHT22;52862;52.504;13.480;2022-08-21T07:37:34;20.60;99.90
51867;DHT22;52862;52.504;13.480;2022-08-21T07:40:01;20.60;99.90
51867;DHT22;52862;52.504;13.480;2022-08-21T07:42:28;21.00;99.90
51867;DHT22;52862;52.504;13.480;2022-08-21T07:44:55;20.60;99.90
51867;DHT22;52862;52.504;13.480;2022-08-21T07:47:22;20.50;99.90
51867;DHT22;52862;52.504;13.480;2022-08-21T07:50:09;20.60;99.90
51867;DHT22;52862;52.504;13.480;2022-08-21T07:52:37;18.80;99.90
51867;DHT22;52862;52.504;13.480;2022-08-21T07:55:05;20.50;99.90
51867;DHT22;52862;52.504;13.480;2022-08-21T07:57:33;20.50;99.90
51867;DHT22;52862;52.504;13.480;2022-08-21T07:59:59;20.70;99.90
51867;DHT22;52862;52.504;13.480;2022-08-21T08:02:28;20.80;99.90
51867;DHT22;52862;52.504;13.480;2022-08-21T08:04:58;21.00;99.90
51867;DHT22;52862;52.504;13.480;2022-08-21T08:07:26;20.90;99.90
51867;DHT22;52862;52.504;13.480;2022-08-21T08:09:53;20.90;99.90
51867;DHT22;52862;52.504;13.480;2022-08-21T08:12:20;21.10;99.90
51867;DHT22;52862;52.504;13.480;2022-08-21T08:14:47;21.30;99.90
51867;DHT22;52862;52.504;13.480;2022-08-21T08:17:13;21.30;99.90
51867;DHT22;52862;52.504;13.480;2022-08-21T08:19:40;21.20;99.90
51867;DHT22;52862;52.504;13.480;2022-08-21T08:22:13;21.40;99.90
51867;DHT22;52862;52.504;13.480;2022-08-21T08:24:41;21.30;99.90
51867;DHT22;52862;52.504;13.480;2022-08-21T08:27:08;21.30;99.90
51867;DHT22;52862;52.504;13.480;2022-08-21T08:29:35;21.50;99.90
51867;DHT22;52862;52.504;13.480;2022-08-21T08:32:02;21.80;99.90
51867;DHT22;52862;52.504;13.480;2022-08-21T08:34:29;21.80;99.90
51867;DHT22;52862;52.504;13.480;2022-08-21T08:36:56;21.70;99.90
51867;DHT22;52862;52.504;13.480;2022-08-21T08:39:24;21.80;99.90
51867;DHT22;52862;52.504;13.480;2022-08-21T08:41:59;22.10;99.90
51867;DHT22;52862;52.504;13.480;2022-08-21T08:44:55;22.10;99.90
51867;DHT22;52862;52.504;13.480;2022-08-21T08:47:26;22.20;99.90
51867;DHT22;52862;52.504;13.480;2022-08-21T08:49:58;22.30;99.90
51867;DHT22;52862;52.504;13.480;2022-08-21T08:52:30;22.10;99.90
51867;DHT22;52862;52.504;13.480;2022-08-21T08:55:03;22.10;99.90
51867;DHT22;52862;52.504;13.480;2022-08-21T08:57:33;22.30;99.90
51867;DHT22;52862;52.504;13.480;2022-08-21T09:00:03;22.20;99.90
51867;DHT22;52862;52.504;13.480;2022-08-21T09:02:30;22.30;99.90
51867;DHT22;52862;52.504;13.480;2022-08-21T09:04:59;22.40;99.90
51867;DHT22;52862;52.504;13.480;2022-08-21T09:07:34;22.10;99.90
51867;DHT22;52862;52.504;13.480;2022-08-21T09:10:11;22.10;99.90
51867;DHT22;52862;52.504;13.480;2022-08-21T09:12:47;22.20;99.90
51867;DHT22;52862;52.504;13.480;2022-08-21T09:15:22;22.40;99.90
51867;DHT22;52862;52.504;13.480;2022-08-21T09:18:10;22.60;99.90
51867;DHT22;52862;52.504;13.480;2022-08-21T09:20:46;22.50;99.90
51867;DHT22;52862;52.504;13.480;2022-08-21T09:23:23;22.50;99.90
51867;DHT22;52862;52.504;13.480;2022-08-21T09:25:56;22.70;99.90
51867;DHT22;52862;52.504;13.480;2022-08-21T09:28:26;23.00;99.90
51867;DHT22;52862;52.504;13.480;2022-08-21T09:30:55;23.30;99.90
51867;DHT22;52862;52.504;13.480;2022-08-21T09:33:24;23.20;99.90
51867;DHT22;52862;52.504;13.480;2022-08-21T09:35:53;22.90;99.90
51867;DHT22;52862;52.504;13.480;2022-08-21T09:38:28;22.70;99.90
51867;DHT22;52862;52.504;13.480;2022-08-21T09:40:58;22.30;99.90
51867;DHT22;52862;52.504;13.480;2022-08-21T09:43:27;22.20;99.90
51867;DHT22;52862;52.504;13.480;2022-08-21T09:46:08;22.20;99.90
51867;DHT22;52862;52.504;13.480;2022-08-21T09:48:41;22.20;99.90
51867;DHT22;52862;52.504;13.480;2022-08-21T09:51:12;22.30;99.90
51867;DHT22;52862;52.504;13.480;2022-08-21T09:53:44;22.80;99.90
51867;DHT22;52862;52.504;13.480;2022-08-21T09:56:22;22.80;99.90
51867;DHT22;52862;52.504;13.480;2022-08-21T09:59:17;23.00;99.90
51867;DHT22;52862;52.504;13.480;2022-08-21T10:01:45;23.10;99.90
51867;DHT22;52862;52.504;13.480;2022-08-21T10:04:14;23.20;99.90
51867;DHT22;52862;52.504;13.480;2022-08-21T10:06:41;23.20;99.90
51867;DHT22;52862;52.504;13.480;2022-08-21T10:09:11;23.30;99.90
51867;DHT22;52862;52.504;13.480;2022-08-21T10:11:52;23.50;99.90
51867;DHT22;52862;52.504;13.480;2022-08-21T10:14:31;23.50;99.90
51867;DHT22;52862;52.504;13.480;2022-08-21T10:17:10;23.30;99.90
51867;DHT22;52862;52.504;13.480;2022-08-21T10:19:47;22.90;99.90
51867;DHT22;52862;52.504;13.480;2022-08-21T10:22:26;23.00;99.90
51867;DHT22;52862;52.504;13.480;2022-08-21T10:25:06;23.00;99.90
51867;DHT22;52862;52.504;13.480;2022-08-21T10:27:39;23.20;99.90
51867;DHT22;52862;52.504;13.480;2022-08-21T10:30:12;23.50;99.90
51867;DHT22;52862;52.504;13.480;2022-08-21T10:32:52;23.70;99.90
51867;DHT22;52862;52.504;13.480;2022-08-21T10:35:25;23.60;99.90
51867;DHT22;52862;52.504;13.480;2022-08-21T10:38:09;23.50;99.90
51867;DHT22;52862;52.504;13.480;2022-08-21T10:41:01;23.60;99.90
51867;DHT22;52862;52.504;13.480;2022-08-21T10:43:39;23.70;99.90
51867;DHT22;52862;52.504;13.480;2022-08-21T10:46:13;23.50;99.90
51867;DHT22;52862;52.504;13.480;2022-08-21T10:48:47;23.20;99.90
51867;DHT22;52862;52.504;13.480;2022-08-21T10:51:20;23.20;99.90
51867;DHT22;52862;52.504;13.480;2022-08-21T10:53:59;23.20;99.90
51867;DHT22;52862;52.504;13.480;2022-08-21T10:56:30;23.40;99.90
51867;DHT22;52862;52.504;13.480;2022-08-21T10:59:07;23.20;99.90
51867;DHT22;52862;52.504;13.480;2022-08-21T11:01:45;23.40;99.90
51867;DHT22;52862;52.504;13.480;2022-08-21T11:04:18;23.40;99.90
51867;DHT22;52862;52.504;13.480;2022-08-21T11:06:51;23.50;99.90
51867;DHT22;52862;52.504;13.480;2022-08-21T11:09:23;23.70;99.90
51867;DHT22;52862;52.504;13.480;2022-08-21T11:11:54;24.10;99.90
51867;DHT22;52862;52.504;13.480;2022-08-21T11:14:51;24.30;99.90
51867;DHT22;52862;52.504;13.480;2022-08-21T11:17:30;24.30;99.90
51867;DHT22;52862;52.504;13.480;2022-08-21T11:20:26;24.10;99.90
51867;DHT22;52862;52.504;13.480;2022-08-21T11:22:57;24.10;99.90
51867;DHT22;52862;52.504;13.480;2022-08-21T11:25:35;24.00;99.90
51867;DHT22;52862;52.504;13.480;2022-08-21T11:28:08;24.00;99.90
51867;DHT22;52862;52.504;13.480;2022-08-21T11:30:49;24.00;99.90
51867;DHT22;52862;52.504;13.480;2022-08-21T11:33:32;24.20;99.90
51867;DHT22;52862;52.504;13.480;2022-08-21T11:36:14;24.30;99.90
51867;DHT22;52862;52.504;13.480;2022-08-21T11:38:46;24.40;99.50
51867;DHT22;52862;52.504;13.480;2022-08-21T11:41:24;24.50;98.20
51867;DHT22;52862;52.504;13.480;2022-08-21T11:44:02;24.50;96.10
51867;DHT22;52862;52.504;13.480;2022-08-21T11:46:38;24.50;96.20
51867;DHT22;52862;52.504;13.480;2022-08-21T11:49:22;24.30;96.20
51867;DHT22;52862;52.504;13.480;2022-08-21T11:51:55;24.60;97.40
51867;DHT22;52862;52.504;13.480;2022-08-21T11:54:29;25.00;95.60
51867;DHT22;52862;52.504;13.480;2022-08-21T11:57:02;25.20;94.70
51867;DHT22;52862;52.504;13.480;2022-08-21T11:59:36;25.20;93.40
51867;DHT22;52862;52.504;13.480;2022-08-21T12:02:10;25.50;92.60
51867;DHT22;52862;52.504;13.480;2022-08-21T12:04:46;25.60;89.00
51867;DHT22;52862;52.504;13.480;2022-08-21T12:07:17;25.50;91.90
51867;DHT22;52862;52.504;13.480;2022-08-21T12:09:53;25.40;88.00
51867;DHT22;52862;52.504;13.480;2022-08-21T12:12:25;25.10;88.80
51867;DHT22;52862;52.504;13.480;2022-08-21T12:15:07;25.20;89.70
51867;DHT22;52862;52.504;13.480;2022-08-21T12:17:40;25.30;90.30
51867;DHT22;52862;52.504;13.480;2022-08-21T12:20:32;25.50;88.40
51867;DHT22;52862;52.504;13.480;2022-08-21T12:23:12;25.60;87.70
51867;DHT22;52862;52.504;13.480;2022-08-21T12:25:42;25.30;89.40
51867;DHT22;52862;52.504;13.480;2022-08-21T12:28:13;25.50;86.00
51867;DHT22;52862;52.504;13.480;2022-08-21T12:30:42;25.60;87.40
51867;DHT22;52862;52.504;13.480;2022-08-21T12:33:22;25.40;84.80
51867;DHT22;52862;52.504;13.480;2022-08-21T12:35:52;25.60;84.80
51867;DHT22;52862;52.504;13.480;2022-08-21T12:38:23;25.90;85.60
51867;DHT22;52862;52.504;13.480;2022-08-21T12:40:55;26.30;82.20
51867;DHT22;52862;52.504;13.480;2022-08-21T12:43:27;26.60;80.10
51867;DHT22;52862;52.504;13.480;2022-08-21T12:45:55;27.10;80.90
51867;DHT22;52862;52.504;13.480;2022-08-21T12:48:26;27.10;80.70
51867;DHT22;52862;52.504;13.480;2022-08-21T12:50:55;27.00;81.20
51867;DHT22;52862;52.504;13.480;2022-08-21T12:53:28;27.20;81.60
51867;DHT22;52862;52.504;13.480;2022-08-21T12:55:57;27.50;83.70
51867;DHT22;52862;52.504;13.480;2022-08-21T12:58:30;28.20;82.60
51867;DHT22;52862;52.504;13.480;2022-08-21T13:01:02;27.30;78.90
51867;DHT22;52862;52.504;13.480;2022-08-21T13:03:29;26.60;80.40
51867;DHT22;52862;52.504;13.480;2022-08-21T13:05:58;26.50;81.60
51867;DHT22;52862;52.504;13.480;2022-08-21T13:08:26;26.70;80.90
51867;DHT22;52862;52.504;13.480;2022-08-21T13:10:59;26.60;79.20
51867;DHT22;52862;52.504;13.480;2022-08-21T13:13:40;26.90;81.70
51867;DHT22;52862;52.504;13.480;2022-08-21T13:16:19;27.40;77.40
51867;DHT22;52862;52.504;13.480;2022-08-21T13:18:55;27.70;75.70
51867;DHT22;52862;52.504;13.480;2022-08-21T13:21:29;27.50;75.20
51867;DHT22;52862;52.504;13.480;2022-08-21T13:24:11;26.60;77.70
51867;DHT22;52862;52.504;13.480;2022-08-21T13:26:59;26.50;80.40
51867;DHT22;52862;52.504;13.480;2022-08-21T13:29:29;26.40;78.10
51867;DHT22;52862;52.504;13.480;2022-08-21T13:31:58;26.60;79.00
51867;DHT22;52862;52.504;13.480;2022-08-21T13:34:29;27.00;79.60
51867;DHT22;52862;52.504;13.480;2022-08-21T13:37:02;27.10;77.70
51867;DHT22;52862;52.504;13.480;2022-08-21T13:39:30;27.40;80.80
51867;DHT22;52862;52.504;13.480;2022-08-21T13:42:00;27.40;77.40
51867;DHT22;52862;52.504;13.480;2022-08-21T13:44:35;27.60;75.40
51867;DHT22;52862;52.504;13.480;2022-08-21T13:47:04;27.40;75.20
51867;DHT22;52862;52.504;13.480;2022-08-21T13:49:34;27.50;76.20
51867;DHT22;52862;52.504;13.480;2022-08-21T13:52:03;27.00;78.50
51867;DHT22;52862;52.504;13.480;2022-08-21T13:54:35;27.00;80.00
51867;DHT22;52862;52.504;13.480;2022-08-21T13:57:03;28.00;80.60
51867;DHT22;52862;52.504;13.480;2022-08-21T13:59:32;27.80;77.80
51867;DHT22;52862;52.504;13.480;2022-08-21T14:02:01;27.60;76.90
51867;DHT22;52862;52.504;13.480;2022-08-21T14:04:36;28.70;77.20
51867;DHT22;52862;52.504;13.480;2022-08-21T14:07:17;31.40;70.00
51867;DHT22;52862;52.504;13.480;2022-08-21T14:09:46;33.30;64.20
51867;DHT22;52862;52.504;13.480;2022-08-21T14:12:15;34.00;60.40
51867;DHT22;52862;52.504;13.480;2022-08-21T14:14:50;31.30;64.90
51867;DHT22;52862;52.504;13.480;2022-08-21T14:17:27;29.40;69.00
51867;DHT22;52862;52.504;13.480;2022-08-21T14:19:59;27.70;74.00
51867;DHT22;52862;52.504;13.480;2022-08-21T14:22:36;26.60;76.80
51867;DHT22;52862;52.504;13.480;2022-08-21T14:25:04;27.10;77.80
51867;DHT22;52862;52.504;13.480;2022-08-21T14:27:33;27.20;77.50
51867;DHT22;52862;52.504;13.480;2022-08-21T14:30:04;27.30;77.90
51867;DHT22;52862;52.504;13.480;2022-08-21T14:32:38;27.30;78.30
51867;DHT22;52862;52.504;13.480;2022-08-21T14:35:10;26.70;79.50
51867;DHT22;52862;52.504;13.480;2022-08-21T14:37:41;26.50;81.90
51867;DHT22;52862;52.504;13.480;2022-08-21T14:40:09;26.00;83.30
51867;DHT22;52862;52.504;13.480;2022-08-21T14:42:40;25.90;83.50
51867;DHT22;52862;52.504;13.480;2022-08-21T14:45:12;25.40;84.80
51867;DHT22;52862;52.504;13.480;2022-08-21T14:47:40;25.20;85.90
51867;DHT22;52862;52.504;13.480;2022-08-21T14:50:11;25.20;85.80
51867;DHT22;52862;52.504;13.480;2022-08-21T14:52:40;25.30;86.40
51867;DHT22;52862;52.504;13.480;2022-08-21T14:55:08;25.40;85.80
51867;DHT22;52862;52.504;13.480;2022-08-21T14:57:40;25.60;85.30
51867;DHT22;52862;52.504;13.480;2022-08-21T15:00:10;25.60;84.50
51867;DHT22;52862;52.504;13.480;2022-08-21T15:02:37;25.60;84.60
51867;DHT22;52862;52.504;13.480;2022-08-21T15:05:04;25.40;86.30
51867;DHT22;52862;52.504;13.480;2022-08-21T15:07:31;25.50;87.20
51867;DHT22;52862;52.504;13.480;2022-08-21T15:09:59;25.60;88.80
51867;DHT22;52862;52.504;13.480;2022-08-21T15:12:26;25.50;86.30
51867;DHT22;52862;52.504;13.480;2022-08-21T15:14:53;25.40;85.80
51867;DHT22;52862;52.504;13.480;2022-08-21T15:17:20;25.20;87.40
51867;DHT22;52862;52.504;13.480;2022-08-21T15:19:46;25.10;88.10
51867;DHT22;52862;52.504;13.480;2022-08-21T15:22:13;25.00;89.40
51867;DHT22;52862;52.504;13.480;2022-08-21T15:24:44;25.00;88.60
51867;DHT22;52862;52.504;13.480;2022-08-21T15:27:12;25.00;88.10
51867;DHT22;52862;52.504;13.480;2022-08-21T15:29:43;24.90;88.50
51867;DHT22;52862;52.504;13.480;2022-08-21T15:32:19;24.80;88.40
51867;DHT22;52862;52.504;13.480;2022-08-21T15:34:46;24.60;89.90
51867;DHT22;52862;52.504;13.480;2022-08-21T15:37:13;24.60;88.50